sensor_id;sensor_type;location;lat;lon;timestamp;P1;durP1;ratioP1;P2;durP2;ratioP2
40931;SDS011;36257;46.052;12.540;2023-04-06T00:01:47;13.43;;;9.33;;
40931;SDS011;36257;46.052;12.540;2023-04-06T00:04:12;12.07;;;10.53;;
40931;SDS011;36257;46.052;12.540;2023-04-06T00:06:38;12.67;;;10.33;;
40931;SDS011;36257;46.052;12.540;2023-04-06T00:09:04;11.73;;;10.33;;
40931;SDS011;36257;46.052;12.540;2023-04-06T00:11:30;13.50;;;10.97;;
40931;SDS011;36257;46.052;12.540;2023-04-06T00:13:55;11.53;;;10.33;;
40931;SDS011;36257;46.052;12.540;2023-04-06T00:16:21;11.53;;;9.93;;
40931;SDS011;36257;46.052;12.540;2023-04-06T00:18:47;10.77;;;9.67;;
40931;SDS011;36257;46.052;12.540;2023-04-06T00:21:12;12.30;;;10.23;;
40931;SDS011;36257;46.052;12.540;2023-04-06T00:23:40;11.13;;;9.50;;
40931;SDS011;36257;46.052;12.540;2023-04-06T00:26:06;11.25;;;9.13;;
40931;SDS011;36257;46.052;12.540;2023-04-06T00:28:33;10.27;;;8.60;;
40931;SDS011;36257;46.052;12.540;2023-04-06T00:30:58;11.70;;;8.90;;
40931;SDS011;36257;46.052;12.540;2023-04-06T00:33:24;8.83;;;8.10;;
40931;SDS011;36257;46.052;12.540;2023-04-06T00:35:50;8.47;;;7.67;;
40931;SDS011;36257;46.052;12.540;2023-04-06T00:38:16;10.47;;;8.57;;
40931;SDS011;36257;46.052;12.540;2023-04-06T00:40:42;8.33;;;7.60;;
40931;SDS011;36257;46.052;12.540;2023-04-06T00:43:09;12.95;;;8.40;;
40931;SDS011;36257;46.052;12.540;2023-04-06T00:45:37;14.43;;;8.43;;
40931;SDS011;36257;46.052;12.540;2023-04-06T00:48:04;12.53;;;8.00;;
40931;SDS011;36257;46.052;12.540;2023-04-06T00:50:31;7.67;;;6.93;;
40931;SDS011;36257;46.052;12.540;2023-04-06T00:52:56;7.60;;;6.90;;
40931;SDS011;36257;46.052;12.540;2023-04-06T00:55:23;12.02;;;8.57;;
40931;SDS011;36257;46.052;12.540;2023-04-06T00:57:49;9.70;;;8.00;;
40931;SDS011;36257;46.052;12.540;2023-04-06T01:00:16;9.07;;;8.13;;
40931;SDS011;36257;46.052;12.540;2023-04-06T01:02:42;7.70;;;6.90;;
40931;SDS011;36257;46.052;12.540;2023-04-06T01:05:09;9.73;;;7.07;;
40931;SDS011;36257;46.052;12.540;2023-04-06T01:07:36;9.23;;;8.43;;
40931;SDS011;36257;46.052;12.540;2023-04-06T01:10:01;9.97;;;7.83;;
40931;SDS011;36257;46.052;12.540;2023-04-06T01:12:28;8.77;;;8.03;;
40931;SDS011;36257;46.052;12.540;2023-04-06T01:14:53;8.47;;;7.60;;
40931;SDS011;36257;46.052;12.540;2023-04-06T01:17:19;8.27;;;6.77;;
40931;SDS011;36257;46.052;12.540;2023-04-06T01:19:45;8.43;;;6.73;;
40931;SDS011;36257;46.052;12.540;2023-04-06T01:22:16;8.65;;;7.82;;
40931;SDS011;36257;46.052;12.540;2023-04-06T01:24:42;8.57;;;7.77;;
40931;SDS011;36257;46.052;12.540;2023-04-06T01:27:08;10.13;;;7.70;;
40931;SDS011;36257;46.052;12.540;2023-04-06T01:29:34;11.23;;;8.70;;
40931;SDS011;36257;46.052;12.540;2023-04-06T01:32:00;8.87;;;8.13;;
40931;SDS011;36257;46.052;12.540;2023-04-06T01:34:26;8.90;;;8.13;;
40931;SDS011;36257;46.052;12.540;2023-04-06T01:36:51;8.90;;;7.97;;
40931;SDS011;36257;46.052;12.540;2023-04-06T01:39:17;9.20;;;8.30;;
40931;SDS011;36257;46.052;12.540;2023-04-06T01:41:44;12.35;;;7.72;;
40931;SDS011;36257;46.052;12.540;2023-04-06T01:44:12;9.07;;;7.43;;
40931;SDS011;36257;46.052;12.540;2023-04-06T01:46:38;9.87;;;7.77;;
40931;SDS011;36257;46.052;12.540;2023-04-06T01:49:03;7.93;;;7.20;;
40931;SDS011;36257;46.052;12.540;2023-04-06T01:51:29;8.13;;;7.30;;
40931;SDS011;36257;46.052;12.540;2023-04-06T01:53:55;8.50;;;7.67;;
40931;SDS011;36257;46.052;12.540;2023-04-06T01:56:21;10.13;;;7.20;;
40931;SDS011;36257;46.052;12.540;2023-04-06T01:58:47;8.87;;;7.63;;
40931;SDS011;36257;46.052;12.540;2023-04-06T02:01:12;9.97;;;8.97;;
40931;SDS011;36257;46.052;12.540;2023-04-06T02:03:38;10.97;;;7.67;;
40931;SDS011;36257;46.052;12.540;2023-04-06T02:06:04;8.57;;;7.70;;
40931;SDS011;36257;46.052;12.540;2023-04-06T02:08:30;7.97;;;7.27;;
40931;SDS011;36257;46.052;12.540;2023-04-06T02:10:55;9.90;;;8.27;;
40931;SDS011;36257;46.052;12.540;2023-04-06T02:13:21;8.93;;;8.03;;
40931;SDS011;36257;46.052;12.540;2023-04-06T02:15:47;7.97;;;7.27;;
40931;SDS011;36257;46.052;12.540;2023-04-06T02:18:12;7.80;;;7.03;;
40931;SDS011;36257;46.052;12.540;2023-04-06T02:20:38;8.77;;;6.73;;
40931;SDS011;36257;46.052;12.540;2023-04-06T02:23:04;8.00;;;7.27;;
40931;SDS011;36257;46.052;12.540;2023-04-06T02:25:29;7.23;;;6.50;;
40931;SDS011;36257;46.052;12.540;2023-04-06T02:27:55;8.23;;;7.10;;
40931;SDS011;36257;46.052;12.540;2023-04-06T02:30:21;10.97;;;7.97;;
40931;SDS011;36257;46.052;12.540;2023-04-06T02:32:46;8.90;;;7.53;;
40931;SDS011;36257;46.052;12.540;2023-04-06T02:35:12;10.07;;;7.17;;
40931;SDS011;36257;46.052;12.540;2023-04-06T02:37:38;9.17;;;7.80;;
40931;SDS011;36257;46.052;12.540;2023-04-06T02:40:03;9.10;;;8.20;;
40931;SDS011;36257;46.052;12.540;2023-04-06T02:42:31;8.85;;;7.80;;
40931;SDS011;36257;46.052;12.540;2023-04-06T02:44:57;6.93;;;6.27;;
40931;SDS011;36257;46.052;12.540;2023-04-06T02:47:22;10.00;;;8.67;;
40931;SDS011;36257;46.052;12.540;2023-04-06T02:49:48;16.97;;;7.50;;
40931;SDS011;36257;46.052;12.540;2023-04-06T02:52:14;8.80;;;7.97;;
40931;SDS011;36257;46.052;12.540;2023-04-06T02:54:39;9.50;;;8.60;;
40931;SDS011;36257;46.052;12.540;2023-04-06T02:57:05;12.30;;;8.43;;
40931;SDS011;36257;46.052;12.540;2023-04-06T02:59:31;10.00;;;8.23;;
40931;SDS011;36257;46.052;12.540;2023-04-06T03:01:56;10.33;;;7.73;;
40931;SDS011;36257;46.052;12.540;2023-04-06T03:04:22;9.93;;;7.73;;
40931;SDS011;36257;46.052;12.540;2023-04-06T03:06:50;11.93;;;8.03;;
40931;SDS011;36257;46.052;12.540;2023-04-06T03:09:16;8.90;;;7.93;;
40931;SDS011;36257;46.052;12.540;2023-04-06T03:11:41;8.20;;;7.40;;
40931;SDS011;36257;46.052;12.540;2023-04-06T03:14:07;8.17;;;7.30;;
40931;SDS011;36257;46.052;12.540;2023-04-06T03:16:33;11.43;;;8.00;;
40931;SDS011;36257;46.052;12.540;2023-04-06T03:18:58;13.90;;;9.00;;
40931;SDS011;36257;46.052;12.540;2023-04-06T03:21:24;9.23;;;8.43;;
40931;SDS011;36257;46.052;12.540;2023-04-06T03:23:50;7.63;;;6.97;;
40931;SDS011;36257;46.052;12.540;2023-04-06T03:26:16;8.87;;;8.03;;
40931;SDS011;36257;46.052;12.540;2023-04-06T03:28:43;9.57;;;7.45;;
40931;SDS011;36257;46.052;12.540;2023-04-06T03:31:08;10.23;;;8.63;;
40931;SDS011;36257;46.052;12.540;2023-04-06T03:33:34;8.20;;;7.43;;
40931;SDS011;36257;46.052;12.540;2023-04-06T03:36:00;8.60;;;7.80;;
40931;SDS011;36257;46.052;12.540;2023-04-06T03:38:26;8.40;;;7.70;;
40931;SDS011;36257;46.052;12.540;2023-04-06T03:40:51;8.50;;;7.70;;
40931;SDS011;36257;46.052;12.540;2023-04-06T03:43:17;12.40;;;8.30;;
40931;SDS011;36257;46.052;12.540;2023-04-06T03:45:42;8.37;;;6.80;;
40931;SDS011;36257;46.052;12.540;2023-04-06T03:48:08;8.97;;;8.10;;
40931;SDS011;36257;46.052;12.540;2023-04-06T03:50:34;9.30;;;8.40;;
40931;SDS011;36257;46.052;12.540;2023-04-06T03:53:00;10.87;;;7.87;;
40931;SDS011;36257;46.052;12.540;2023-04-06T03:55:28;9.20;;;8.30;;
40931;SDS011;36257;46.052;12.540;2023-04-06T03:57:53;8.33;;;7.53;;
40931;SDS011;36257;46.052;12.540;2023-04-06T04:00:19;8.77;;;7.07;;
40931;SDS011;36257;46.052;12.540;2023-04-06T04:02:45;8.40;;;7.50;;
40931;SDS011;36257;46.052;12.540;2023-04-06T04:05:10;10.33;;;7.80;;
40931;SDS011;36257;46.052;12.540;2023-04-06T04:07:36;14.93;;;7.90;;
40931;SDS011;36257;46.052;12.540;2023-04-06T04:10:02;10.00;;;7.67;;
40931;SDS011;36257;46.052;12.540;2023-04-06T04:12:28;8.57;;;7.37;;
40931;SDS011;36257;46.052;12.540;2023-04-06T04:14:53;8.13;;;7.27;;
40931;SDS011;36257;46.052;12.540;2023-04-06T04:17:19;8.13;;;6.97;;
40931;SDS011;36257;46.052;12.540;2023-04-06T04:19:46;9.10;;;8.20;;
40931;SDS011;36257;46.052;12.540;2023-04-06T04:22:11;10.30;;;8.63;;
40931;SDS011;36257;46.052;12.540;2023-04-06T04:24:37;13.77;;;6.90;;
40931;SDS011;36257;46.052;12.540;2023-04-06T04:27:03;9.60;;;7.97;;
40931;SDS011;36257;46.052;12.540;2023-04-06T04:29:29;9.50;;;7.37;;
40931;SDS011;36257;46.052;12.540;2023-04-06T04:31:55;10.03;;;8.37;;
40931;SDS011;36257;46.052;12.540;2023-04-06T04:34:21;8.30;;;7.50;;
40931;SDS011;36257;46.052;12.540;2023-04-06T04:36:51;10.77;;;8.63;;
40931;SDS011;36257;46.052;12.540;2023-04-06T04:39:17;9.87;;;7.40;;
40931;SDS011;36257;46.052;12.540;2023-04-06T04:41:42;8.00;;;7.03;;
40931;SDS011;36257;46.052;12.540;2023-04-06T04:44:08;8.67;;;7.73;;
40931;SDS011;36257;46.052;12.540;2023-04-06T04:46:34;8.83;;;7.63;;
40931;SDS011;36257;46.052;12.540;2023-04-06T04:49:00;10.33;;;8.27;;
40931;SDS011;36257;46.052;12.540;2023-04-06T04:51:25;9.03;;;8.10;;
40931;SDS011;36257;46.052;12.540;2023-04-06T04:53:51;9.47;;;7.63;;
40931;SDS011;36257;46.052;12.540;2023-04-06T04:56:17;9.60;;;8.70;;
40931;SDS011;36257;46.052;12.540;2023-04-06T04:58:42;10.23;;;8.80;;
40931;SDS011;36257;46.052;12.540;2023-04-06T05:01:08;12.80;;;9.43;;
40931;SDS011;36257;46.052;12.540;2023-04-06T05:03:34;20.60;;;8.60;;
40931;SDS011;36257;46.052;12.540;2023-04-06T05:06:03;8.67;;;7.77;;
40931;SDS011;36257;46.052;12.540;2023-04-06T05:08:29;12.47;;;9.07;;
40931;SDS011;36257;46.052;12.540;2023-04-06T05:10:55;10.83;;;9.70;;
40931;SDS011;36257;46.052;12.540;2023-04-06T05:13:20;9.50;;;7.80;;
40931;SDS011;36257;46.052;12.540;2023-04-06T05:15:46;9.13;;;8.20;;
40931;SDS011;36257;46.052;12.540;2023-04-06T05:18:13;9.90;;;7.77;;
40931;SDS011;36257;46.052;12.540;2023-04-06T05:20:38;9.17;;;8.17;;
40931;SDS011;36257;46.052;12.540;2023-04-06T05:23:04;10.63;;;9.63;;
40931;SDS011;36257;46.052;12.540;2023-04-06T05:25:30;18.97;;;12.70;;
40931;SDS011;36257;46.052;12.540;2023-04-06T05:27:57;21.08;;;14.10;;
40931;SDS011;36257;46.052;12.540;2023-04-06T05:30:23;23.27;;;12.00;;
40931;SDS011;36257;46.052;12.540;2023-04-06T05:32:48;15.63;;;10.50;;
40931;SDS011;36257;46.052;12.540;2023-04-06T05:35:15;12.63;;;9.73;;
40931;SDS011;36257;46.052;12.540;2023-04-06T05:37:42;11.52;;;9.20;;
40931;SDS011;36257;46.052;12.540;2023-04-06T05:40:07;10.03;;;8.73;;
40931;SDS011;36257;46.052;12.540;2023-04-06T05:42:40;9.83;;;7.90;;
40931;SDS011;36257;46.052;12.540;2023-04-06T05:45:10;8.70;;;7.80;;
40931;SDS011;36257;46.052;12.540;2023-04-06T05:47:41;9.93;;;8.30;;
40931;SDS011;36257;46.052;12.540;2023-04-06T05:50:11;8.87;;;8.17;;
40931;SDS011;36257;46.052;12.540;2023-04-06T05:52:37;10.40;;;9.03;;
40931;SDS011;36257;46.052;12.540;2023-04-06T05:55:03;11.97;;;8.67;;
40931;SDS011;36257;46.052;12.540;2023-04-06T05:57:30;8.80;;;7.90;;
40931;SDS011;36257;46.052;12.540;2023-04-06T05:59:55;8.60;;;7.40;;
40931;SDS011;36257;46.052;12.540;2023-04-06T06:02:21;9.63;;;8.63;;
40931;SDS011;36257;46.052;12.540;2023-04-06T06:04:47;9.83;;;7.83;;
40931;SDS011;36257;46.052;12.540;2023-04-06T06:07:13;9.33;;;8.43;;
40931;SDS011;36257;46.052;12.540;2023-04-06T06:09:39;10.70;;;9.70;;
40931;SDS011;36257;46.052;12.540;2023-04-06T06:12:05;11.10;;;9.73;;
40931;SDS011;36257;46.052;12.540;2023-04-06T06:14:31;10.03;;;9.03;;
40931;SDS011;36257;46.052;12.540;2023-04-06T06:16:56;14.03;;;9.13;;
40931;SDS011;36257;46.052;12.540;2023-04-06T06:19:22;10.17;;;8.83;;
40931;SDS011;36257;46.052;12.540;2023-04-06T06:22:08;10.43;;;8.57;;
40931;SDS011;36257;46.052;12.540;2023-04-06T06:24:33;10.57;;;8.53;;
40931;SDS011;36257;46.052;12.540;2023-04-06T06:26:59;10.87;;;8.67;;
40931;SDS011;36257;46.052;12.540;2023-04-06T06:29:25;10.90;;;8.97;;
40931;SDS011;36257;46.052;12.540;2023-04-06T06:31:50;12.83;;;8.63;;
40931;SDS011;36257;46.052;12.540;2023-04-06T06:34:16;11.10;;;8.83;;
40931;SDS011;36257;46.052;12.540;2023-04-06T06:36:42;10.77;;;8.83;;
40931;SDS011;36257;46.052;12.540;2023-04-06T06:39:07;11.20;;;8.33;;
40931;SDS011;36257;46.052;12.540;2023-04-06T06:41:33;9.33;;;8.33;;
40931;SDS011;36257;46.052;12.540;2023-04-06T06:43:59;9.33;;;8.43;;
40931;SDS011;36257;46.052;12.540;2023-04-06T06:46:24;10.67;;;8.63;;
40931;SDS011;36257;46.052;12.540;2023-04-06T06:48:50;8.90;;;7.97;;
40931;SDS011;36257;46.052;12.540;2023-04-06T06:51:16;12.77;;;8.40;;
40931;SDS011;36257;46.052;12.540;2023-04-06T06:53:41;9.80;;;8.80;;
40931;SDS011;36257;46.052;12.540;2023-04-06T06:56:07;11.20;;;8.70;;
40931;SDS011;36257;46.052;12.540;2023-04-06T06:58:33;8.83;;;7.97;;
40931;SDS011;36257;46.052;12.540;2023-04-06T07:00:58;9.50;;;8.40;;
40931;SDS011;36257;46.052;12.540;2023-04-06T07:03:24;10.40;;;9.37;;
40931;SDS011;36257;46.052;12.540;2023-04-06T07:05:51;12.23;;;8.87;;
40931;SDS011;36257;46.052;12.540;2023-04-06T07:08:23;12.93;;;8.27;;
40931;SDS011;36257;46.052;12.540;2023-04-06T07:10:52;10.10;;;8.70;;
40931;SDS011;36257;46.052;12.540;2023-04-06T07:13:19;9.67;;;8.50;;
40931;SDS011;36257;46.052;12.540;2023-04-06T07:15:51;10.77;;;8.83;;
40931;SDS011;36257;46.052;12.540;2023-04-06T07:18:17;10.93;;;8.47;;
40931;SDS011;36257;46.052;12.540;2023-04-06T07:20:43;11.37;;;8.63;;
40931;SDS011;36257;46.052;12.540;2023-04-06T07:23:09;9.88;;;8.98;;
40931;SDS011;36257;46.052;12.540;2023-04-06T07:25:35;16.27;;;8.83;;
40931;SDS011;36257;46.052;12.540;2023-04-06T07:28:01;9.80;;;8.77;;
40931;SDS011;36257;46.052;12.540;2023-04-06T07:30:27;10.57;;;9.52;;
40931;SDS011;36257;46.052;12.540;2023-04-06T07:32:54;11.65;;;8.38;;
40931;SDS011;36257;46.052;12.540;2023-04-06T07:35:24;15.07;;;9.40;;
40931;SDS011;36257;46.052;12.540;2023-04-06T07:37:51;10.75;;;9.27;;
40931;SDS011;36257;46.052;12.540;2023-04-06T07:40:17;10.00;;;8.95;;
40931;SDS011;36257;46.052;12.540;2023-04-06T07:42:44;9.90;;;8.65;;
40931;SDS011;36257;46.052;12.540;2023-04-06T07:45:10;12.48;;;8.70;;
40931;SDS011;36257;46.052;12.540;2023-04-06T07:47:36;11.90;;;8.65;;
40931;SDS011;36257;46.052;12.540;2023-04-06T07:50:02;10.45;;;8.65;;
40931;SDS011;36257;46.052;12.540;2023-04-06T07:52:28;14.18;;;9.55;;
40931;SDS011;36257;46.052;12.540;2023-04-06T07:54:54;10.88;;;8.18;;
40931;SDS011;36257;46.052;12.540;2023-04-06T07:57:19;12.05;;;8.48;;
40931;SDS011;36257;46.052;12.540;2023-04-06T07:59:45;11.88;;;8.35;;
40931;SDS011;36257;46.052;12.540;2023-04-06T08:02:11;9.48;;;7.40;;
40931;SDS011;36257;46.052;12.540;2023-04-06T08:04:36;10.40;;;7.47;;
40931;SDS011;36257;46.052;12.540;2023-04-06T08:07:02;11.50;;;7.80;;
40931;SDS011;36257;46.052;12.540;2023-04-06T08:09:28;9.02;;;7.85;;
40931;SDS011;36257;46.052;12.540;2023-04-06T08:11:53;15.25;;;8.95;;
40931;SDS011;36257;46.052;12.540;2023-04-06T08:14:19;15.15;;;7.72;;
40931;SDS011;36257;46.052;12.540;2023-04-06T08:16:45;9.80;;;7.85;;
40931;SDS011;36257;46.052;12.540;2023-04-06T08:19:11;9.57;;;8.43;;
40931;SDS011;36257;46.052;12.540;2023-04-06T08:21:37;11.60;;;8.70;;
40931;SDS011;36257;46.052;12.540;2023-04-06T08:24:03;11.43;;;8.05;;
40931;SDS011;36257;46.052;12.540;2023-04-06T08:26:29;11.77;;;8.05;;
40931;SDS011;36257;46.052;12.540;2023-04-06T08:28:54;11.10;;;8.35;;
40931;SDS011;36257;46.052;12.540;2023-04-06T08:31:20;12.65;;;8.23;;
40931;SDS011;36257;46.052;12.540;2023-04-06T08:33:46;10.93;;;8.38;;
40931;SDS011;36257;46.052;12.540;2023-04-06T08:36:12;11.52;;;8.10;;
40931;SDS011;36257;46.052;12.540;2023-04-06T08:38:39;13.07;;;8.70;;
40931;SDS011;36257;46.052;12.540;2023-04-06T08:41:07;9.80;;;8.77;;
40931;SDS011;36257;46.052;12.540;2023-04-06T08:43:49;14.20;;;8.73;;
40931;SDS011;36257;46.052;12.540;2023-04-06T08:46:20;12.75;;;8.35;;
40931;SDS011;36257;46.052;12.540;2023-04-06T08:48:46;15.38;;;8.68;;
40931;SDS011;36257;46.052;12.540;2023-04-06T08:51:15;9.43;;;8.50;;
40931;SDS011;36257;46.052;12.540;2023-04-06T08:53:41;10.77;;;8.48;;
40931;SDS011;36257;46.052;12.540;2023-04-06T08:56:06;11.77;;;9.70;;
40931;SDS011;36257;46.052;12.540;2023-04-06T08:58:37;10.85;;;8.45;;
40931;SDS011;36257;46.052;12.540;2023-04-06T09:01:08;13.75;;;8.90;;
40931;SDS011;36257;46.052;12.540;2023-04-06T09:03:37;9.93;;;8.00;;
40931;SDS011;36257;46.052;12.540;2023-04-06T09:06:04;13.32;;;9.25;;
40931;SDS011;36257;46.052;12.540;2023-04-06T09:08:32;9.47;;;8.37;;
40931;SDS011;36257;46.052;12.540;2023-04-06T09:11:00;11.40;;;9.15;;
40931;SDS011;36257;46.052;12.540;2023-04-06T09:13:27;11.07;;;8.35;;
40931;SDS011;36257;46.052;12.540;2023-04-06T09:16:00;10.63;;;9.48;;
40931;SDS011;36257;46.052;12.540;2023-04-06T09:18:27;13.90;;;9.35;;
40931;SDS011;36257;46.052;12.540;2023-04-06T09:21:01;13.02;;;9.07;;
40931;SDS011;36257;46.052;12.540;2023-04-06T09:23:31;13.27;;;10.30;;
40931;SDS011;36257;46.052;12.540;2023-04-06T09:28:49;15.57;;;9.18;;
40931;SDS011;36257;46.052;12.540;2023-04-06T09:31:17;9.57;;;8.50;;
40931;SDS011;36257;46.052;12.540;2023-04-06T09:33:50;13.90;;;9.30;;
40931;SDS011;36257;46.052;12.540;2023-04-06T09:36:19;15.48;;;9.45;;
40931;SDS011;36257;46.052;12.540;2023-04-06T09:38:55;18.50;;;9.27;;
40931;SDS011;36257;46.052;12.540;2023-04-06T09:41:27;13.70;;;9.32;;
40931;SDS011;36257;46.052;12.540;2023-04-06T09:44:02;11.02;;;9.10;;
40931;SDS011;36257;46.052;12.540;2023-04-06T09:46:53;14.47;;;9.67;;
40931;SDS011;36257;46.052;12.540;2023-04-06T09:49:18;13.02;;;8.90;;
40931;SDS011;36257;46.052;12.540;2023-04-06T09:51:48;13.35;;;10.18;;
40931;SDS011;36257;46.052;12.540;2023-04-06T09:54:20;12.43;;;8.93;;
40931;SDS011;36257;46.052;12.540;2023-04-06T09:56:51;14.38;;;8.95;;
40931;SDS011;36257;46.052;12.540;2023-04-06T09:59:30;14.13;;;9.50;;
40931;SDS011;36257;46.052;12.540;2023-04-06T10:02:05;14.68;;;9.23;;
40931;SDS011;36257;46.052;12.540;2023-04-06T10:07:06;12.70;;;9.70;;
40931;SDS011;36257;46.052;12.540;2023-04-06T10:09:32;12.18;;;9.75;;
40931;SDS011;36257;46.052;12.540;2023-04-06T10:12:07;12.48;;;9.13;;
40931;SDS011;36257;46.052;12.540;2023-04-06T10:14:33;12.00;;;9.70;;
40931;SDS011;36257;46.052;12.540;2023-04-06T10:17:05;14.25;;;9.63;;
40931;SDS011;36257;46.052;12.540;2023-04-06T10:19:35;11.68;;;8.80;;
40931;SDS011;36257;46.052;12.540;2023-04-06T10:22:09;15.32;;;10.35;;
40931;SDS011;36257;46.052;12.540;2023-04-06T10:24:38;15.57;;;9.38;;
40931;SDS011;36257;46.052;12.540;2023-04-06T10:27:03;14.15;;;9.38;;
40931;SDS011;36257;46.052;12.540;2023-04-06T10:29:47;11.82;;;9.43;;
40931;SDS011;36257;46.052;12.540;2023-04-06T10:32:16;11.57;;;8.57;;
40931;SDS011;36257;46.052;12.540;2023-04-06T10:34:41;17.33;;;9.25;;
40931;SDS011;36257;46.052;12.540;2023-04-06T10:37:12;11.85;;;9.13;;
40931;SDS011;36257;46.052;12.540;2023-04-06T10:39:45;17.05;;;9.77;;
40931;SDS011;36257;46.052;12.540;2023-04-06T10:42:12;11.55;;;9.40;;
40931;SDS011;36257;46.052;12.540;2023-04-06T10:44:56;12.70;;;10.43;;
40931;SDS011;36257;46.052;12.540;2023-04-06T10:47:21;17.25;;;9.95;;
40931;SDS011;36257;46.052;12.540;2023-04-06T10:49:47;15.60;;;10.00;;
40931;SDS011;36257;46.052;12.540;2023-04-06T10:52:13;13.85;;;9.85;;
40931;SDS011;36257;46.052;12.540;2023-04-06T10:54:40;11.07;;;8.95;;
40931;SDS011;36257;46.052;12.540;2023-04-06T10:57:10;11.90;;;8.98;;
40931;SDS011;36257;46.052;12.540;2023-04-06T10:59:41;14.47;;;10.20;;
40931;SDS011;36257;46.052;12.540;2023-04-06T11:02:07;14.85;;;10.43;;
40931;SDS011;36257;46.052;12.540;2023-04-06T11:04:33;15.48;;;10.57;;
40931;SDS011;36257;46.052;12.540;2023-04-06T11:06:59;14.20;;;9.43;;
40931;SDS011;36257;46.052;12.540;2023-04-06T11:09:28;15.00;;;9.30;;
40931;SDS011;36257;46.052;12.540;2023-04-06T11:11:56;13.18;;;10.48;;
40931;SDS011;36257;46.052;12.540;2023-04-06T11:14:22;12.98;;;10.65;;
40931;SDS011;36257;46.052;12.540;2023-04-06T11:16:48;14.63;;;10.18;;
40931;SDS011;36257;46.052;12.540;2023-04-06T11:19:15;15.75;;;10.23;;
40931;SDS011;36257;46.052;12.540;2023-04-06T11:29:09;14.48;;;10.00;;
40931;SDS011;36257;46.052;12.540;2023-04-06T11:31:39;15.05;;;11.65;;
40931;SDS011;36257;46.052;12.540;2023-04-06T11:34:13;15.05;;;10.55;;
40931;SDS011;36257;46.052;12.540;2023-04-06T11:36:45;14.45;;;11.48;;
40931;SDS011;36257;46.052;12.540;2023-04-06T11:39:13;14.85;;;10.35;;
40931;SDS011;36257;46.052;12.540;2023-04-06T11:41:47;16.15;;;11.02;;
40931;SDS011;36257;46.052;12.540;2023-04-06T11:47:06;15.43;;;11.10;;
40931;SDS011;36257;46.052;12.540;2023-04-06T11:49:32;17.88;;;11.13;;
40931;SDS011;36257;46.052;12.540;2023-04-06T11:52:01;17.88;;;11.75;;
40931;SDS011;36257;46.052;12.540;2023-04-06T11:54:31;11.82;;;9.95;;
40931;SDS011;36257;46.052;12.540;2023-04-06T11:57:02;14.27;;;11.13;;
40931;SDS011;36257;46.052;12.540;2023-04-06T12:01:58;16.10;;;11.02;;
40931;SDS011;36257;46.052;12.540;2023-04-06T12:04:24;18.08;;;10.90;;
40931;SDS011;36257;46.052;12.540;2023-04-06T12:06:50;13.93;;;10.70;;
40931;SDS011;36257;46.052;12.540;2023-04-06T12:09:16;15.88;;;10.27;;
40931;SDS011;36257;46.052;12.540;2023-04-06T12:11:42;13.95;;;11.23;;
40931;SDS011;36257;46.052;12.540;2023-04-06T12:14:08;18.80;;;11.55;;
40931;SDS011;36257;46.052;12.540;2023-04-06T12:16:34;15.40;;;11.32;;
40931;SDS011;36257;46.052;12.540;2023-04-06T12:19:00;19.27;;;11.68;;
40931;SDS011;36257;46.052;12.540;2023-04-06T12:21:27;16.40;;;11.48;;
40931;SDS011;36257;46.052;12.540;2023-04-06T12:23:53;15.02;;;11.35;;
40931;SDS011;36257;46.052;12.540;2023-04-06T12:26:19;16.63;;;11.25;;
40931;SDS011;36257;46.052;12.540;2023-04-06T12:28:46;14.95;;;10.85;;
40931;SDS011;36257;46.052;12.540;2023-04-06T12:31:15;15.73;;;11.38;;
40931;SDS011;36257;46.052;12.540;2023-04-06T12:33:42;17.23;;;11.48;;
40931;SDS011;36257;46.052;12.540;2023-04-06T12:36:13;14.23;;;10.73;;
40931;SDS011;36257;46.052;12.540;2023-04-06T12:38:40;16.23;;;11.85;;
40931;SDS011;36257;46.052;12.540;2023-04-06T12:41:06;16.38;;;10.57;;
40931;SDS011;36257;46.052;12.540;2023-04-06T12:43:32;14.45;;;11.27;;
40931;SDS011;36257;46.052;12.540;2023-04-06T12:45:58;18.52;;;12.25;;
40931;SDS011;36257;46.052;12.540;2023-04-06T12:48:27;14.75;;;10.85;;
40931;SDS011;36257;46.052;12.540;2023-04-06T12:50:57;17.77;;;12.07;;
40931;SDS011;36257;46.052;12.540;2023-04-06T12:53:23;16.60;;;10.68;;
40931;SDS011;36257;46.052;12.540;2023-04-06T12:55:49;12.95;;;10.25;;
40931;SDS011;36257;46.052;12.540;2023-04-06T12:58:16;13.83;;;11.43;;
40931;SDS011;36257;46.052;12.540;2023-04-06T13:00:42;16.75;;;11.68;;
40931;SDS011;36257;46.052;12.540;2023-04-06T13:03:08;15.30;;;10.10;;
40931;SDS011;36257;46.052;12.540;2023-04-06T13:05:34;17.42;;;11.38;;
40931;SDS011;36257;46.052;12.540;2023-04-06T13:08:00;14.25;;;10.95;;
40931;SDS011;36257;46.052;12.540;2023-04-06T13:10:25;14.73;;;11.00;;
40931;SDS011;36257;46.052;12.540;2023-04-06T13:12:51;17.27;;;11.88;;
40931;SDS011;36257;46.052;12.540;2023-04-06T13:15:17;13.45;;;10.75;;
40931;SDS011;36257;46.052;12.540;2023-04-06T13:17:43;16.27;;;10.73;;
40931;SDS011;36257;46.052;12.540;2023-04-06T13:20:09;22.15;;;11.65;;
40931;SDS011;36257;46.052;12.540;2023-04-06T13:22:35;16.95;;;11.30;;
40931;SDS011;36257;46.052;12.540;2023-04-06T13:25:01;14.80;;;11.27;;
40931;SDS011;36257;46.052;12.540;2023-04-06T13:27:27;20.75;;;12.40;;
40931;SDS011;36257;46.052;12.540;2023-04-06T13:29:53;16.08;;;11.85;;
40931;SDS011;36257;46.052;12.540;2023-04-06T13:32:19;17.73;;;12.30;;
40931;SDS011;36257;46.052;12.540;2023-04-06T13:34:45;16.00;;;11.55;;
40931;SDS011;36257;46.052;12.540;2023-04-06T13:37:13;24.67;;;12.13;;
40931;SDS011;36257;46.052;12.540;2023-04-06T13:39:38;15.98;;;11.90;;
40931;SDS011;36257;46.052;12.540;2023-04-06T13:42:04;14.77;;;11.52;;
40931;SDS011;36257;46.052;12.540;2023-04-06T13:44:31;17.23;;;12.30;;
40931;SDS011;36257;46.052;12.540;2023-04-06T13:46:57;19.55;;;15.05;;
40931;SDS011;36257;46.052;12.540;2023-04-06T13:49:23;30.20;;;21.38;;
40931;SDS011;36257;46.052;12.540;2023-04-06T13:51:49;18.98;;;12.48;;
40931;SDS011;36257;46.052;12.540;2023-04-06T13:54:15;17.25;;;12.60;;
40931;SDS011;36257;46.052;12.540;2023-04-06T13:56:40;16.85;;;12.05;;
40931;SDS011;36257;46.052;12.540;2023-04-06T13:59:06;19.70;;;12.98;;
40931;SDS011;36257;46.052;12.540;2023-04-06T14:01:32;19.63;;;12.18;;
40931;SDS011;36257;46.052;12.540;2023-04-06T14:03:57;14.32;;;10.43;;
40931;SDS011;36257;46.052;12.540;2023-04-06T14:06:23;15.10;;;11.45;;
40931;SDS011;36257;46.052;12.540;2023-04-06T14:08:49;17.20;;;10.50;;
40931;SDS011;36257;46.052;12.540;2023-04-06T14:11:15;15.93;;;11.45;;
40931;SDS011;36257;46.052;12.540;2023-04-06T14:13:41;15.98;;;12.65;;
40931;SDS011;36257;46.052;12.540;2023-04-06T14:16:07;18.10;;;12.25;;
40931;SDS011;36257;46.052;12.540;2023-04-06T14:18:33;20.35;;;13.20;;
40931;SDS011;36257;46.052;12.540;2023-04-06T14:20:59;16.73;;;13.23;;
40931;SDS011;36257;46.052;12.540;2023-04-06T14:23:25;16.20;;;12.23;;
40931;SDS011;36257;46.052;12.540;2023-04-06T14:26:04;15.98;;;11.18;;
40931;SDS011;36257;46.052;12.540;2023-04-06T14:28:31;16.63;;;12.27;;
40931;SDS011;36257;46.052;12.540;2023-04-06T14:31:01;17.73;;;12.02;;
40931;SDS011;36257;46.052;12.540;2023-04-06T14:33:34;20.80;;;12.20;;
40931;SDS011;36257;46.052;12.540;2023-04-06T14:36:02;17.85;;;13.07;;
40931;SDS011;36257;46.052;12.540;2023-04-06T14:38:28;15.15;;;12.50;;